createdAt,value
2024-01-09T00:02:09.581Z,21.05
2024-01-09T00:04:41.542Z,18.90
2024-01-09T00:07:13.894Z,18.13
2024-01-09T00:09:45.808Z,21.58
2024-01-09T00:15:11.559Z,22.15
2024-01-09T00:17:44.060Z,22.05
2024-01-09T00:20:18.261Z,21.83
2024-01-09T00:22:51.949Z,22.02
2024-01-09T00:25:24.730Z,19.67
2024-01-09T00:27:57.146Z,20.20
2024-01-09T00:30:29.599Z,22.35
2024-01-09T00:33:02.651Z,22.30
2024-01-09T00:35:35.403Z,19.45
2024-01-09T00:38:08.742Z,21.52
2024-01-09T00:40:41.641Z,20.90
2024-01-09T00:43:14.812Z,20.98
2024-01-09T00:45:47.297Z,21.53
2024-01-09T00:48:19.865Z,20.77
2024-01-09T00:50:52.115Z,20.92
2024-01-09T00:53:25.016Z,19.55
2024-01-09T00:55:57.683Z,25.67
2024-01-09T00:58:30.490Z,20.43
2024-01-09T01:01:02.917Z,22.60
2024-01-09T01:03:35.388Z,23.52
2024-01-09T01:06:07.374Z,20.55
2024-01-09T01:08:40.550Z,20.40
2024-01-09T01:11:13.715Z,22.40
2024-01-09T01:13:45.708Z,24.00
2024-01-09T01:16:18.488Z,20.15
2024-01-09T01:18:50.816Z,23.52
2024-01-09T01:21:24.354Z,23.63
2024-01-09T01:23:56.862Z,22.07
2024-01-09T01:26:30.832Z,23.05
2024-01-09T01:29:03.134Z,23.02
2024-01-09T01:31:35.959Z,22.02
2024-01-09T01:34:08.024Z,22.40
2024-01-09T01:36:41.081Z,21.97
2024-01-09T01:39:12.973Z,25.15
2024-01-09T01:41:46.121Z,20.35
2024-01-09T01:44:19.457Z,21.40
2024-01-09T01:46:52.342Z,21.17
2024-01-09T01:49:24.829Z,20.93
2024-01-09T01:51:59.282Z,22.67
2024-01-09T01:54:33.881Z,24.40
2024-01-09T01:57:07.926Z,21.80
2024-01-09T01:59:44.190Z,22.85
2024-01-09T02:02:17.678Z,24.37
2024-01-09T02:04:49.748Z,23.30
2024-01-09T02:07:25.717Z,20.23
2024-01-09T02:09:58.536Z,24.88
2024-01-09T02:12:31.700Z,22.75
2024-01-09T02:15:05.573Z,21.93
2024-01-09T02:17:39.791Z,24.45
2024-01-09T02:20:12.436Z,21.00
2024-01-09T02:22:45.833Z,24.70
2024-01-09T02:25:18.265Z,21.23
2024-01-09T02:27:59.384Z,22.80
2024-01-09T02:30:33.605Z,19.75
2024-01-09T02:33:08.798Z,24.10
2024-01-09T02:35:41.915Z,21.60
2024-01-09T02:38:14.032Z,23.38
2024-01-09T02:40:46.787Z,24.17
2024-01-09T02:43:19.958Z,20.95
2024-01-09T02:45:52.434Z,23.92
2024-01-09T02:48:24.978Z,21.23
2024-01-09T02:50:57.402Z,21.17
2024-01-09T02:53:29.375Z,21.90
2024-01-09T02:56:02.267Z,21.67
2024-01-09T02:58:35.263Z,25.35
2024-01-09T03:01:09.407Z,23.60
2024-01-09T03:03:41.473Z,26.52
2024-01-09T03:06:14.830Z,20.93
2024-01-09T03:08:46.980Z,21.10
2024-01-09T03:11:19.844Z,21.73
2024-01-09T03:13:51.759Z,28.30
2024-01-09T03:16:24.763Z,21.30
2024-01-09T03:18:57.436Z,21.67
2024-01-09T03:21:29.377Z,24.35
2024-01-09T03:24:02.128Z,23.52
2024-01-09T03:26:34.115Z,21.80
2024-01-09T03:29:07.055Z,24.55
2024-01-09T03:31:39.037Z,25.30
2024-01-09T03:34:11.903Z,21.83
2024-01-09T03:36:45.902Z,23.92
2024-01-09T03:39:18.718Z,22.25
2024-01-09T03:41:50.821Z,21.30
2024-01-09T03:44:24.724Z,24.73
2024-01-09T03:46:57.144Z,22.38
2024-01-09T03:49:29.595Z,25.05
2024-01-09T03:52:02.000Z,20.55
2024-01-09T03:54:34.860Z,22.60
2024-01-09T03:57:07.619Z,25.50
2024-01-09T03:59:40.026Z,20.85
2024-01-09T04:02:12.891Z,24.38
2024-01-09T04:04:44.837Z,21.58
2024-01-09T04:07:39.515Z,24.25
2024-01-09T04:10:11.441Z,19.37
2024-01-09T04:12:44.299Z,23.92
2024-01-09T04:15:17.444Z,22.67
2024-01-09T04:17:50.006Z,22.98
2024-01-09T04:20:22.955Z,21.15
2024-01-09T04:22:55.384Z,22.50
2024-01-09T04:25:27.330Z,24.05
2024-01-09T04:28:01.316Z,23.65
2024-01-09T04:30:33.845Z,21.17
2024-01-09T04:33:06.538Z,23.73
2024-01-09T04:35:39.578Z,21.57
2024-01-09T04:38:11.937Z,22.23
2024-01-09T04:40:44.746Z,22.52
2024-01-09T04:43:17.505Z,21.15
2024-01-09T04:45:49.899Z,22.42
2024-01-09T04:48:22.783Z,22.67
2024-01-09T04:50:55.799Z,23.38
2024-01-09T04:53:27.834Z,25.88
2024-01-09T04:56:01.816Z,21.42
2024-01-09T04:58:34.199Z,22.13
2024-01-09T05:01:14.073Z,20.00
2024-01-09T05:03:48.800Z,22.98
2024-01-09T05:06:23.440Z,24.27
2024-01-09T05:08:55.716Z,20.83
2024-01-09T05:11:28.609Z,24.35
2024-01-09T05:14:00.587Z,22.07
2024-01-09T05:16:33.948Z,25.50
2024-01-09T05:19:06.105Z,19.95
2024-01-09T05:21:40.083Z,24.13
2024-01-09T05:24:12.964Z,26.75
2024-01-09T05:26:44.947Z,22.80
2024-01-09T05:29:17.906Z,23.52
2024-01-09T05:31:50.360Z,24.45
2024-01-09T05:34:22.760Z,24.73
2024-01-09T05:36:56.041Z,24.02
2024-01-09T05:39:29.869Z,20.53
2024-01-09T05:42:02.380Z,21.52
2024-01-09T05:44:34.752Z,23.33
2024-01-09T05:47:07.672Z,24.92
2024-01-09T05:49:40.148Z,21.27
2024-01-09T05:52:12.973Z,25.83
2024-01-09T05:54:48.335Z,24.10
2024-01-09T05:57:21.260Z,25.35
2024-01-09T05:59:53.735Z,23.65
2024-01-09T06:02:29.745Z,24.63
2024-01-09T06:05:02.119Z,24.47
2024-01-09T06:07:35.307Z,23.42
2024-01-09T06:10:09.538Z,23.75
2024-01-09T06:12:42.033Z,22.25
2024-01-09T06:15:14.493Z,24.90
2024-01-09T06:17:46.685Z,26.67
2024-01-09T06:20:19.940Z,26.02
2024-01-09T06:22:52.410Z,24.73
2024-01-09T06:25:25.110Z,27.23
2024-01-09T06:27:57.744Z,23.30
2024-01-09T06:30:31.203Z,22.00
2024-01-09T06:33:03.688Z,23.95
2024-01-09T06:35:37.097Z,23.25
2024-01-09T06:38:10.307Z,25.95
2024-01-09T06:43:36.877Z,26.13
2024-01-09T06:46:10.307Z,23.45
2024-01-09T06:48:43.389Z,28.92
2024-01-09T06:51:16.136Z,26.38
2024-01-09T06:53:48.318Z,33.20
2024-01-09T06:56:21.275Z,27.57
2024-01-09T06:58:55.273Z,29.30
2024-01-09T07:01:27.784Z,30.15
2024-01-09T07:04:01.894Z,22.67
2024-01-09T07:06:37.233Z,27.20
2024-01-09T07:09:11.168Z,25.33
2024-01-09T07:11:43.831Z,27.60
2024-01-09T07:14:16.190Z,35.63
2024-01-09T07:16:48.824Z,29.23
2024-01-09T07:19:20.850Z,25.95
2024-01-09T07:21:54.216Z,28.10
2024-01-09T07:24:26.520Z,25.08
2024-01-09T07:27:22.538Z,27.13
2024-01-09T07:29:54.495Z,26.05
2024-01-09T07:32:30.261Z,27.70
2024-01-09T07:35:03.152Z,28.67
2024-01-09T07:37:38.836Z,24.33
2024-01-09T07:40:12.861Z,27.75
2024-01-09T07:42:53.475Z,29.80
2024-01-09T07:45:33.089Z,26.42
2024-01-09T07:48:06.444Z,27.73
2024-01-09T07:50:40.154Z,27.48
2024-01-09T07:53:12.177Z,30.00
2024-01-09T07:55:46.694Z,31.35
2024-01-09T07:58:18.639Z,30.15
2024-01-09T08:03:45.465Z,28.58
2024-01-09T08:06:20.549Z,27.25
2024-01-09T08:08:52.687Z,25.73
2024-01-09T08:11:26.873Z,27.75
2024-01-09T08:13:58.812Z,25.07
2024-01-09T08:16:32.359Z,25.13
2024-01-09T08:19:08.004Z,26.52
2024-01-09T08:21:43.015Z,30.65
2024-01-09T08:24:19.576Z,28.33
2024-01-09T08:29:48.575Z,27.45
2024-01-09T08:32:24.668Z,27.88
2024-01-09T08:34:57.018Z,23.90
2024-01-09T08:37:30.326Z,24.80
2024-01-09T08:40:02.394Z,31.57
2024-01-09T08:45:29.558Z,22.15
2024-01-09T08:48:03.940Z,27.67
2024-01-09T08:50:36.060Z,27.10
2024-01-09T08:53:09.970Z,27.70
2024-01-09T08:55:43.385Z,24.40
2024-01-09T08:58:15.664Z,26.48
2024-01-09T09:00:50.598Z,24.42
2024-01-09T09:03:22.744Z,27.02
2024-01-09T09:05:56.824Z,21.97
2024-01-09T09:08:29.674Z,21.38
2024-01-09T09:11:04.593Z,24.75
2024-01-09T09:13:37.820Z,23.23
2024-01-09T09:16:32.377Z,24.35
2024-01-09T09:19:06.157Z,23.07
2024-01-09T09:24:34.721Z,24.63
2024-01-09T09:27:10.074Z,24.30
2024-01-09T09:29:45.437Z,26.65
2024-01-09T09:32:18.271Z,25.40
2024-01-09T09:34:52.328Z,30.70
2024-01-09T09:37:25.990Z,28.83
2024-01-09T09:39:57.928Z,25.17
2024-01-09T09:42:33.393Z,26.55
2024-01-09T09:45:12.853Z,23.53
2024-01-09T09:48:08.087Z,20.75
2024-01-09T09:50:40.590Z,22.42
2024-01-09T09:53:12.909Z,21.80
2024-01-09T09:55:48.619Z,24.27
2024-01-09T09:58:20.977Z,30.00
2024-01-09T10:00:59.030Z,31.63
2024-01-09T10:03:33.752Z,22.80
2024-01-09T10:06:08.897Z,25.48
2024-01-09T10:11:36.250Z,21.23
2024-01-09T10:17:06.748Z,23.77
2024-01-09T10:19:40.777Z,21.73
2024-01-09T10:22:15.194Z,23.25
2024-01-09T10:24:49.432Z,23.23
2024-01-09T10:27:22.460Z,19.00
2024-01-09T10:29:55.637Z,20.17
2024-01-09T10:32:28.261Z,20.17
2024-01-09T10:35:02.641Z,22.40
2024-01-09T10:37:37.841Z,24.73
2024-01-09T10:40:13.393Z,20.17
2024-01-09T10:42:47.096Z,21.00
2024-01-09T10:45:25.271Z,21.88
2024-01-09T10:47:59.759Z,19.17
2024-01-09T10:50:32.339Z,23.97
2024-01-09T10:53:07.246Z,23.63
2024-01-09T10:55:41.182Z,20.08
2024-01-09T10:58:14.699Z,21.48
2024-01-09T11:00:47.391Z,20.98
2024-01-09T11:06:20.892Z,16.02
2024-01-09T11:08:59.718Z,21.33
2024-01-09T11:11:36.798Z,23.27
2024-01-09T11:14:11.706Z,21.45
2024-01-09T11:16:48.823Z,18.50
2024-01-09T11:19:21.560Z,20.85
2024-01-09T11:21:57.359Z,20.70
2024-01-09T11:24:29.929Z,20.85
2024-01-09T11:27:14.825Z,22.70
2024-01-09T11:29:54.422Z,21.63
2024-01-09T11:32:29.356Z,19.38
2024-01-09T11:35:18.282Z,22.17
2024-01-09T11:37:53.222Z,20.83
2024-01-09T11:40:25.360Z,21.67
2024-01-09T11:42:57.716Z,21.73
2024-01-09T11:45:29.689Z,22.08
2024-01-09T11:48:02.971Z,26.58
2024-01-09T11:50:35.093Z,19.42
2024-01-09T11:53:07.862Z,23.50
2024-01-09T11:55:40.340Z,21.17
2024-01-09T11:58:13.584Z,23.70
2024-01-09T12:00:46.263Z,22.88
2024-01-09T12:03:18.932Z,24.27
2024-01-09T12:05:54.260Z,25.83
2024-01-09T12:08:27.175Z,21.87
2024-01-09T12:10:59.203Z,20.33
2024-01-09T12:13:31.901Z,21.67
2024-01-09T12:16:23.770Z,21.77
2024-01-09T12:18:58.142Z,23.83
2024-01-09T12:21:35.356Z,21.53
2024-01-09T12:26:45.496Z,26.40
2024-01-09T12:29:18.668Z,21.27
2024-01-09T12:31:51.147Z,19.58
2024-01-09T12:34:24.574Z,22.47
2024-01-09T12:36:58.229Z,21.92
2024-01-09T12:39:32.019Z,23.60
2024-01-09T12:42:17.660Z,21.98
2024-01-09T12:44:50.635Z,23.27
2024-01-09T12:47:26.303Z,21.07
2024-01-09T12:50:04.079Z,24.77
2024-01-09T12:52:39.112Z,20.70
2024-01-09T12:55:12.434Z,24.00
2024-01-09T12:57:44.941Z,26.48
2024-01-09T13:00:18.302Z,24.90
2024-01-09T13:02:50.934Z,19.30
2024-01-09T13:05:24.225Z,24.95
2024-01-09T13:07:57.786Z,21.52
2024-01-09T13:10:30.522Z,23.77
2024-01-09T13:13:02.977Z,25.17
2024-01-09T13:18:31.618Z,25.75
2024-01-09T13:21:04.826Z,25.58
2024-01-09T13:23:48.791Z,26.48
2024-01-09T13:26:24.528Z,21.87
2024-01-09T13:31:32.707Z,24.08
2024-01-09T13:34:05.884Z,25.05
2024-01-09T13:36:38.635Z,23.13
2024-01-09T13:39:13.315Z,27.37
2024-01-09T13:41:47.521Z,25.15
2024-01-09T13:44:20.955Z,27.65
2024-01-09T13:46:57.289Z,23.85
2024-01-09T13:49:30.696Z,24.58
2024-01-09T13:53:01.491Z,24.20
2024-01-09T13:55:34.327Z,26.60
2024-01-09T13:58:07.177Z,28.38
2024-01-09T14:00:39.304Z,25.00
2024-01-09T14:03:12.155Z,24.90
2024-01-09T14:05:44.308Z,23.47
2024-01-09T14:08:17.110Z,24.25
2024-01-09T14:10:51.884Z,24.33
2024-01-09T14:13:24.936Z,21.23
2024-01-09T14:15:58.570Z,25.40
2024-01-09T14:18:32.891Z,23.93
2024-01-09T14:21:05.458Z,22.15
2024-01-09T14:23:39.179Z,22.73
2024-01-09T14:26:11.948Z,23.45
2024-01-09T14:28:44.514Z,25.00
2024-01-09T14:31:17.521Z,22.23
2024-01-09T14:33:49.676Z,29.45
2024-01-09T14:36:22.889Z,27.02
2024-01-09T14:38:55.457Z,22.75
2024-01-09T14:41:28.342Z,25.65
2024-01-09T14:44:01.979Z,24.43
2024-01-09T14:46:36.048Z,24.77
2024-01-09T14:49:08.304Z,24.58
2024-01-09T14:51:44.322Z,23.80
2024-01-09T14:54:17.572Z,26.33
2024-01-09T14:56:51.008Z,24.57
2024-01-09T14:59:23.276Z,25.83
2024-01-09T15:01:56.573Z,22.85
2024-01-09T15:04:29.196Z,25.35
2024-01-09T15:07:02.853Z,25.10
2024-01-09T15:09:35.365Z,25.37
2024-01-09T15:12:08.411Z,23.85
2024-01-09T15:14:40.368Z,27.25
2024-01-09T15:17:13.112Z,27.23
2024-01-09T15:19:45.182Z,25.08
2024-01-09T15:22:17.921Z,28.30
2024-01-09T15:24:50.333Z,23.85
2024-01-09T15:27:23.698Z,27.60
2024-01-09T15:29:55.705Z,25.13
2024-01-09T15:32:28.951Z,27.23
2024-01-09T15:35:04.312Z,26.53
2024-01-09T15:37:38.394Z,27.17
2024-01-09T15:40:14.811Z,23.10
2024-01-09T15:42:49.197Z,26.00
2024-01-09T15:45:22.163Z,24.08
2024-01-09T15:47:58.919Z,23.20
2024-01-09T15:50:31.068Z,24.60
2024-01-09T15:53:05.909Z,24.65
2024-01-09T15:55:40.448Z,25.65
2024-01-09T15:58:13.616Z,27.45
2024-01-09T16:00:45.670Z,27.13
2024-01-09T16:03:18.616Z,24.13
2024-01-09T16:05:51.361Z,29.10
2024-01-09T16:08:24.113Z,27.83
2024-01-09T16:10:56.344Z,28.50
2024-01-09T16:13:30.351Z,24.67
2024-01-09T16:16:09.148Z,29.33
2024-01-09T16:18:41.986Z,26.65
2024-01-09T16:21:14.709Z,29.88
2024-01-09T16:23:48.357Z,29.75
2024-01-09T16:26:20.381Z,32.07
2024-01-09T16:28:54.843Z,28.65
2024-01-09T16:31:28.690Z,27.92
2024-01-09T16:34:01.821Z,30.10
2024-01-09T16:36:34.311Z,29.05
2024-01-09T16:39:08.980Z,28.13
2024-01-09T16:41:44.770Z,29.45
2024-01-09T16:44:18.115Z,28.60
2024-01-09T16:46:50.485Z,27.00
2024-01-09T16:49:23.712Z,31.40
2024-01-09T16:51:56.963Z,27.73
2024-01-09T16:54:30.969Z,26.15
2024-01-09T16:57:06.206Z,28.02
2024-01-09T16:59:39.091Z,26.33
2024-01-09T17:02:13.261Z,28.73
2024-01-09T17:04:46.800Z,31.80
2024-01-09T17:07:19.637Z,29.40
2024-01-09T17:09:52.359Z,25.50
2024-01-09T17:12:24.452Z,30.58
2024-01-09T17:14:58.652Z,27.23
2024-01-09T17:17:32.705Z,29.97
2024-01-09T17:20:06.529Z,31.02
2024-01-09T17:22:39.596Z,30.83
2024-01-09T17:25:12.532Z,31.10
2024-01-09T17:27:45.210Z,31.10
2024-01-09T17:30:18.497Z,27.73
2024-01-09T17:32:50.526Z,28.40
2024-01-09T17:35:23.235Z,29.23
2024-01-09T17:37:55.620Z,31.38
2024-01-09T17:40:28.328Z,28.42
2024-01-09T17:43:00.939Z,28.00
2024-01-09T17:45:34.096Z,29.20
2024-01-09T17:48:08.045Z,28.02
2024-01-09T17:50:41.624Z,28.73
2024-01-09T17:53:14.047Z,35.78
2024-01-09T17:55:48.156Z,28.63
2024-01-09T17:58:22.030Z,27.55
2024-01-09T18:00:54.975Z,31.02
2024-01-09T18:03:29.086Z,29.70
2024-01-09T18:06:02.449Z,32.05
2024-01-09T18:08:36.753Z,31.90
2024-01-09T18:11:09.496Z,28.05
2024-01-09T18:13:41.804Z,27.95
2024-01-09T18:16:14.752Z,29.80
2024-01-09T18:18:48.210Z,30.80
2024-01-09T18:21:27.692Z,29.80
2024-01-09T18:24:00.083Z,31.60
2024-01-09T18:26:33.468Z,27.67
2024-01-09T18:29:10.966Z,31.30
2024-01-09T18:31:49.022Z,29.58
2024-01-09T18:34:22.356Z,29.27
2024-01-09T18:36:55.570Z,33.38
2024-01-09T18:39:28.006Z,32.65
2024-01-09T18:42:01.054Z,30.83
2024-01-09T18:44:33.293Z,37.97
2024-01-09T18:47:06.051Z,38.23
2024-01-09T18:49:38.558Z,35.80
2024-01-09T18:52:11.880Z,42.38
2024-01-09T18:54:44.251Z,34.78
2024-01-09T18:57:17.011Z,41.88
2024-01-09T18:59:49.012Z,42.63
2024-01-09T19:02:21.797Z,38.20
2024-01-09T19:04:54.709Z,43.70
2024-01-09T19:07:27.930Z,41.83
2024-01-09T19:10:00.414Z,40.15
2024-01-09T19:12:33.543Z,41.33
2024-01-09T19:15:07.347Z,42.13
2024-01-09T19:17:40.397Z,45.20
2024-01-09T19:20:14.272Z,41.15
2024-01-09T19:22:49.023Z,39.33
2024-01-09T19:25:21.020Z,42.87
2024-01-09T19:27:53.766Z,40.28
2024-01-09T19:30:25.950Z,42.90
2024-01-09T19:33:00.294Z,41.97
2024-01-09T19:35:32.750Z,50.38
2024-01-09T19:38:05.952Z,41.97
2024-01-09T19:40:38.068Z,46.08
2024-01-09T19:43:10.751Z,44.05
2024-01-09T19:45:42.835Z,42.50
2024-01-09T19:48:18.435Z,43.92
2024-01-09T19:50:52.295Z,36.97
2024-01-09T19:53:25.436Z,37.67
2024-01-09T19:55:57.520Z,36.05
2024-01-09T19:58:30.827Z,36.80
2024-01-09T20:01:05.361Z,40.63
2024-01-09T20:03:38.176Z,33.50
2024-01-09T20:06:22.448Z,36.75
2024-01-09T20:08:55.816Z,38.55
2024-01-09T20:11:30.946Z,42.38
2024-01-09T20:14:06.173Z,54.75
2024-01-09T20:16:39.144Z,39.27
2024-01-09T20:19:12.365Z,46.67
2024-01-09T20:21:44.481Z,42.38
2024-01-09T20:24:17.332Z,40.58
2024-01-09T20:26:50.402Z,45.40
2024-01-09T20:29:23.398Z,42.13
2024-01-09T20:31:56.131Z,43.50
2024-01-09T20:34:29.004Z,45.58
2024-01-09T20:37:01.622Z,46.38
2024-01-09T20:39:34.788Z,40.33
2024-01-09T20:42:06.806Z,44.00
2024-01-09T20:44:42.563Z,42.95
2024-01-09T20:47:15.400Z,44.03
2024-01-09T20:49:51.253Z,44.55
2024-01-09T20:52:23.917Z,45.45
2024-01-09T20:54:57.065Z,47.67
2024-01-09T20:57:29.666Z,43.60
2024-01-09T21:00:05.343Z,49.47
2024-01-09T21:02:37.568Z,46.80
2024-01-09T21:05:12.407Z,44.35
2024-01-09T21:07:44.835Z,43.03
2024-01-09T21:10:18.659Z,46.20
2024-01-09T21:12:50.719Z,46.55
2024-01-09T21:15:24.089Z,47.25
2024-01-09T21:17:58.089Z,46.20
2024-01-09T21:20:36.807Z,50.80
2024-01-09T21:23:09.826Z,47.95
2024-01-09T21:25:44.429Z,48.13
2024-01-09T21:28:18.298Z,48.80
2024-01-09T21:30:51.124Z,42.00
2024-01-09T21:33:27.024Z,46.63
2024-01-09T21:35:59.783Z,45.83
2024-01-09T21:38:32.425Z,53.50
2024-01-09T21:41:04.978Z,50.60
2024-01-09T21:43:37.685Z,54.22
2024-01-09T21:46:10.491Z,48.87
2024-01-09T21:48:42.788Z,48.00
2024-01-09T21:51:15.157Z,47.90
2024-01-09T21:53:47.677Z,52.20
2024-01-09T21:56:21.199Z,48.67
2024-01-09T21:58:53.836Z,51.00
2024-01-09T22:01:27.575Z,45.60
2024-01-09T22:04:00.600Z,48.42
2024-01-09T22:06:33.828Z,46.63
2024-01-09T22:09:06.780Z,51.10
2024-01-09T22:11:42.823Z,52.03
2024-01-09T22:14:15.295Z,48.97
2024-01-09T22:16:48.130Z,50.28
2024-01-09T22:19:20.556Z,48.95
2024-01-09T22:21:53.636Z,51.88
2024-01-09T22:24:25.912Z,47.07
2024-01-09T22:26:58.607Z,44.53
2024-01-09T22:29:30.677Z,51.28
2024-01-09T22:32:06.280Z,44.67
2024-01-09T22:34:38.529Z,46.08
2024-01-09T22:37:11.576Z,46.80
2024-01-09T22:39:44.685Z,51.33
2024-01-09T22:42:17.328Z,50.72
2024-01-09T22:44:49.288Z,48.60
2024-01-09T22:47:22.060Z,53.58
2024-01-09T22:49:54.076Z,47.10
2024-01-09T22:52:26.870Z,47.28
2024-01-09T22:54:58.922Z,44.92
2024-01-09T22:57:31.607Z,48.83
2024-01-09T23:00:16.524Z,55.35
2024-01-09T23:02:51.356Z,49.60
2024-01-09T23:05:23.482Z,50.10
2024-01-09T23:07:58.756Z,51.75
2024-01-09T23:10:31.601Z,54.60
2024-01-09T23:13:04.125Z,41.78
2024-01-09T23:15:36.161Z,48.80
2024-01-09T23:18:09.821Z,44.60
2024-01-09T23:20:41.865Z,48.10
2024-01-09T23:23:14.576Z,49.55
2024-01-09T23:25:47.081Z,54.17
2024-01-09T23:28:19.728Z,48.67
2024-01-09T23:30:51.787Z,49.45
2024-01-09T23:33:24.571Z,51.65
2024-01-09T23:35:56.621Z,44.50
2024-01-09T23:38:29.530Z,51.55
2024-01-09T23:41:01.737Z,50.47
2024-01-09T23:43:34.484Z,52.08
2024-01-09T23:46:06.460Z,53.08
2024-01-09T23:48:39.102Z,50.42
2024-01-09T23:51:12.474Z,50.75
2024-01-09T23:53:45.342Z,53.07
2024-01-09T23:56:17.652Z,48.78
2024-01-09T23:58:52.625Z,50.53
